| time (UTC) | temp F | wind direction | speed knots | gust knots | rain 1hr in | rain 24hr in | rain mn in | humidity % | barometer mb |
| 20260905224620 | 104 | 267 | 0.0 | 0.9 | 0.00 | 0.13 | 0.13 | 43 | 1012.4 |
| 20260905224119 | 104 | 283 | 0.0 | 0.0 | 0.00 | 0.13 | 0.13 | 43 | 1012.3 |
| 20260905223616 | 105 | 291 | 0.9 | 1.7 | 0.00 | 0.13 | 0.13 | 42 | 1012.6 |
| 20260905223113 | 106 | 261 | 0.0 | 0.0 | 0.00 | 0.13 | 0.13 | 41 | 1012.7 |
| 20260905222612 | 108 | 253 | 0.0 | 0.9 | 0.00 | 0.13 | 0.13 | 39 | 1012.4 |
| 20260905222107 | 110 | 256 | 0.0 | 0.9 | 0.00 | 0.13 | 0.13 | 38 | 1012.5 |
| 20260905221603 | 112 | 258 | 0.9 | 1.7 | 0.00 | 0.13 | 0.13 | 37 | 1012.5 |
| 20260905221059 | 112 | 318 | 0.9 | 1.7 | 0.00 | 0.13 | 0.13 | 38 | 1012.3 |
| 20260905220554 | 113 | 268 | 0.9 | 0.9 | 0.00 | 0.13 | 0.13 | 37 | 1012.3 |
| 20260905220051 | 115 | 293 | 0.9 | 1.7 | 0.00 | 0.13 | 0.13 | 35 | 1012.5 |
| 20260905215550 | 117 | 319 | 0.9 | 1.7 | 0.00 | 0.13 | 0.13 | 34 | 1012.2 |
| 20260905215046 | 116 | 327 | 0.0 | 2.6 | 0.00 | 0.13 | 0.13 | 35 | 1012.5 |
| 20260905214542 | 115 | 267 | 0.9 | 2.6 | 0.00 | 0.13 | 0.13 | 35 | 1012.4 |
| 20260905214037 | 116 | 251 | 0.0 | 0.0 | 0.00 | 0.13 | 0.13 | 37 | 1012.6 |
| 20260905213532 | 114 | 255 | 0.0 | 0.0 | 0.00 | 0.13 | 0.13 | 39 | 1012.4 |
| 20260905213027 | 111 | 269 | 0.0 | 0.9 | 0.00 | 0.13 | 0.13 | 41 | 1012.5 |
| 20260905212522 | 107 | 257 | 0.0 | 0.0 | 0.00 | 0.13 | 0.13 | 45 | 1012.5 |
| 20260905212021 | 102 | 263 | 0.0 | 0.9 | 0.00 | 0.13 | 0.13 | 51 | 1012.5 |
| 20260905211517 | 98 | 245 | 0.0 | 0.9 | 0.00 | 0.13 | 0.13 | 54 | 1012.6 |
| 20260905211013 | 94 | 254 | 0.0 | 0.9 | 0.00 | 0.13 | 0.13 | 61 | 1012.7 |
| 20260905210508 | 93 | 257 | 0.0 | 0.9 | 0.00 | 0.13 | 0.13 | 62 | 1012.4 |
| 20260905210009 | 92 | 242 | 0.0 | 0.9 | 0.00 | 0.13 | 0.13 | 63 | 1012.8 |
| 20260905205508 | 91 | 257 | 0.0 | 0.9 | 0.00 | 0.13 | 0.13 | 64 | 1012.8 |
| 20260905205007 | 89 | 243 | 0.0 | 0.9 | 0.00 | 0.13 | 0.13 | 65 | 1013.0 |
| 20260905204503 | 88 | 236 | 0.0 | 0.9 | 0.00 | 0.13 | 0.13 | 68 | 1013.1 |
| 20260905204002 | 87 | 190 | 2.6 | 2.6 | 0.00 | 0.13 | 0.13 | 71 | 1013.1 |
| 20260905203458 | 86 | 253 | 0.0 | 0.9 | 0.00 | 0.13 | 0.13 | 70 | 1013.2 |
| 20260905202953 | 85 | 239 | 0.0 | 1.7 | 0.00 | 0.13 | 0.13 | 72 | 1013.2 |
| 20260905202448 | 85 | 242 | 0.0 | 0.0 | 0.00 | 0.13 | 0.13 | 72 | 1013.3 |
| 20260905201943 | 85 | 254 | 0.0 | 0.0 | 0.00 | 0.13 | 0.13 | 72 | 1013.2 |
| 20260905201438 | 84 | 351 | 0.9 | 1.7 | 0.00 | 0.13 | 0.13 | 71 | 1013.2 |
| 20260905200933 | 84 | 251 | 0.0 | 0.9 | 0.00 | 0.13 | 0.13 | 72 | 1013.4 |
| 20260905200429 | 84 | 272 | 0.0 | 0.9 | 0.00 | 0.13 | 0.13 | 72 | 1013.5 |
| 20260905195926 | 83 | 265 | 0.0 | 0.9 | 0.00 | 0.13 | 0.13 | 72 | 1013.3 |
| 20260905195417 | 83 | 252 | 0.0 | 0.0 | 0.00 | 0.13 | 0.13 | 71 | 1013.5 |
| 20260905194912 | 82 | 250 | 0.0 | 5.2 | 0.00 | 0.13 | 0.13 | 72 | 1013.8 |
| 20260905194412 | 82 | 274 | 0.0 | 0.9 | 0.00 | 0.13 | 0.13 | 72 | 1013.6 |
| 20260905193911 | 81 | 257 | 0.0 | 5.2 | 0.07 | 0.13 | 0.13 | 72 | 1013.7 |
| 20260905193406 | 82 | 90 | 0.9 | 11.3 | 0.73 | 0.13 | 0.13 | 69 | 1013.9 |
| 20260905192902 | 86 | 97 | 2.6 | 6.1 | 0.66 | 0.11 | 0.11 | 64 | 1014.1 |
| 20260905192357 | 88 | 18 | 1.7 | 7.0 | 0.05 | 0.01 | 0.01 | 58 | 1014.4 |
| 20260905191857 | 91 | 76 | 1.7 | 11.3 | 0.00 | 0.00 | 0.00 | 55 | 1014.2 |
| 20260905191356 | 94 | 45 | 6.1 | 7.8 | 0.00 | 0.00 | 0.00 | 52 | 1014.0 |
| 20260905190856 | 98 | 323 | 6.1 | 8.7 | 0.00 | 0.00 | 0.00 | 46 | 1014.0 |
| 20260905190354 | 100 | 359 | 6.1 | 11.3 | 0.00 | 0.00 | 0.00 | 43 | 1013.9 |
| 20260905185853 | 100 | 282 | 0.9 | 1.7 | 0.00 | 0.00 | 0.00 | 44 | 1013.4 |
| 20260905185348 | 100 | 295 | 1.7 | 2.6 | 0.00 | 0.00 | 0.00 | 45 | 1013.3 |
| 20260905184847 | 99 | 310 | 2.6 | 6.1 | 0.00 | 0.00 | 0.00 | 45 | 1013.5 |
| 20260905184347 | 98 | 344 | 2.6 | 5.2 | 0.00 | 0.00 | 0.00 | 45 | 1013.6 |
| 20260905183840 | 98 | 193 | 1.7 | 2.6 | 0.00 | 0.00 | 0.00 | 45 | 1013.6 |
| 20260905183335 | 97 | 252 | 0.9 | 1.7 | 0.00 | 0.00 | 0.00 | 46 | 1013.7 |
| 20260905182830 | 97 | 247 | 0.9 | 3.5 | 0.00 | 0.00 | 0.00 | 47 | 1013.7 |
| 20260905182329 | 96 | 16 | 1.7 | 2.6 | 0.00 | 0.00 | 0.00 | 47 | 1013.6 |
| 20260905181825 | 96 | 270 | 4.3 | 5.2 | 0.00 | 0.00 | 0.00 | 47 | 1013.9 |
| 20260905181324 | 96 | 56 | 5.2 | 7.0 | 0.00 | 0.00 | 0.00 | 48 | 1013.7 |
| 20260905180823 | 96 | 249 | 0.0 | 1.7 | 0.00 | 0.00 | 0.00 | 50 | 1013.9 |
| 20260905180319 | 96 | 239 | 3.5 | 6.1 | 0.00 | 0.00 | 0.00 | 50 | 1014.0 |
| 20260905175814 | 95 | 357 | 3.5 | 5.2 | 0.00 | 0.00 | 0.00 | 51 | 1014.2 |
| 20260905175308 | 95 | 208 | 1.7 | 2.6 | 0.00 | 0.00 | 0.00 | 51 | 1014.1 |
| 20260905174803 | 95 | 353 | 4.3 | 5.2 | 0.00 | 0.00 | 0.00 | 52 | 1014.2 |
| 20260905174259 | 95 | 275 | 1.7 | 3.5 | 0.00 | 0.00 | 0.00 | 52 | 1014.2 |
| 20260905173755 | 94 | 239 | 0.0 | 0.9 | 0.00 | 0.00 | 0.00 | 53 | 1014.0 |
| 20260905173251 | 94 | 251 | 2.6 | 3.5 | 0.00 | 0.00 | 0.00 | 53 | 1014.1 |
| 20260905172750 | 94 | 249 | 0.0 | 0.9 | 0.00 | 0.00 | 0.00 | 54 | 1014.2 |
| 20260905172249 | 94 | 301 | 1.7 | 2.6 | 0.00 | 0.00 | 0.00 | 54 | 1014.3 |
| 20260905171745 | 93 | 291 | 1.7 | 1.7 | 0.00 | 0.00 | 0.00 | 55 | 1014.1 |
| 20260905171241 | 93 | 15 | 0.9 | 1.7 | 0.00 | 0.00 | 0.00 | 55 | 1014.4 |
| 20260905170738 | 93 | 313 | 1.7 | 2.6 | 0.00 | 0.00 | 0.00 | 55 | 1014.5 |
| 20260905170233 | 93 | 237 | 0.9 | 2.6 | 0.00 | 0.00 | 0.00 | 55 | 1014.3 |
| 20260905165732 | 93 | 240 | 0.9 | 1.7 | 0.00 | 0.00 | 0.00 | 54 | 1014.6 |
| 20260905165228 | 93 | 249 | 0.0 | 1.7 | 0.00 | 0.00 | 0.00 | 55 | 1014.5 |
| 20260905164727 | 93 | 246 | 0.9 | 3.5 | 0.00 | 0.00 | 0.00 | 55 | 1014.8 |
| 20260905164222 | 93 | 241 | 0.9 | 2.6 | 0.00 | 0.00 | 0.00 | 55 | 1014.9 |
| 20260905163718 | 93 | 251 | 0.0 | 0.0 | 0.00 | 0.00 | 0.00 | 55 | 1014.6 |
| 20260905163214 | 92 | 235 | 0.0 | 0.0 | 0.00 | 0.00 | 0.00 | 56 | 1014.8 |
| 20260905162711 | 92 | 235 | 0.0 | 0.0 | 0.00 | 0.00 | 0.00 | 56 | 1014.8 |
| 20260905162210 | 92 | 235 | 0.0 | 0.0 | 0.00 | 0.00 | 0.00 | 56 | 1015.0 |
| 20260905161705 | 92 | 235 | 0.0 | 0.0 | 0.00 | 0.00 | 0.00 | 56 | 1015.0 |
| 20260905161203 | 91 | 235 | 0.0 | 0.0 | 0.00 | 0.00 | 0.00 | 56 | 1014.9 |
| 20260905160702 | 91 | 301 | 0.9 | 0.9 | 0.00 | 0.00 | 0.00 | 57 | 1014.8 |
| 20260905160156 | 91 | 244 | 1.7 | 1.7 | 0.00 | 0.00 | 0.00 | 59 | 1014.8 |
| 20260905155655 | 91 | 218 | 0.9 | 0.9 | 0.00 | 0.00 | 0.00 | 59 | 1014.9 |
| 20260905155155 | 90 | 218 | 0.9 | 0.9 | 0.00 | 0.00 | 0.00 | 59 | 1014.9 |
| 20260905154644 | 90 | 218 | 0.9 | 0.9 | 0.00 | 0.00 | 0.00 | 59 | 1015.0 |
| 20260905154139 | 90 | 218 | 0.9 | 0.9 | 0.00 | 0.00 | 0.00 | 59 | 1015.0 |
| 20260905153635 | 90 | 218 | 0.9 | 0.9 | 0.00 | 0.00 | 0.00 | 60 | 1015.1 |
| 20260905153131 | 89 | 218 | 0.9 | 0.9 | 0.00 | 0.00 | 0.00 | 61 | 1014.9 |
| 20260905152625 | 89 | 218 | 0.9 | 0.9 | 0.00 | 0.00 | 0.00 | 60 | 1014.9 |
| 20260905152120 | 88 | 218 | 0.9 | 0.9 | 0.00 | 0.00 | 0.00 | 63 | 1015.0 |
| 20260905151615 | 88 | 218 | 0.9 | 0.9 | 0.00 | 0.00 | 0.00 | 63 | 1015.1 |
| 20260905151111 | 88 | 218 | 0.9 | 0.9 | 0.00 | 0.00 | 0.00 | 63 | 1015.2 |
| 20260905150606 | 88 | 260 | 0.9 | 2.6 | 0.00 | 0.00 | 0.00 | 63 | 1015.2 |
| 20260905145557 | 86 | 266 | 0.9 | 0.9 | 0.00 | 0.00 | 0.00 | 67 | 1015.0 |
| 20260905145056 | 86 | 266 | 0.9 | 0.9 | 0.00 | 0.00 | 0.00 | 69 | 1015.1 |
| 20260905144551 | 85 | 266 | 0.9 | 0.9 | 0.00 | 0.00 | 0.00 | 71 | 1015.1 |
| 20260905144049 | 85 | 266 | 0.9 | 0.9 | 0.00 | 0.00 | 0.00 | 72 | 1014.9 |
| 20260905143544 | 85 | 266 | 0.9 | 0.9 | 0.00 | 0.00 | 0.00 | 72 | 1015.0 |
| 20260905143039 | 84 | 266 | 0.9 | 0.9 | 0.00 | 0.00 | 0.00 | 72 | 1014.9 |
| 20260905142538 | 84 | 233 | 0.0 | 0.9 | 0.00 | 0.00 | 0.00 | 74 | 1015.0 |
| 20260905142032 | 84 | 263 | 0.0 | 0.9 | 0.00 | 0.00 | 0.00 | 74 | 1015.1 |
| 20260905141527 | 83 | 236 | 0.0 | 0.9 | 0.00 | 0.00 | 0.00 | 74 | 1015.0 |
| 20260905141023 | 82 | 253 | 0.0 | 0.9 | 0.00 | 0.00 | 0.00 | 77 | 1015.1 |
| 20260905140518 | 82 | 252 | 0.0 | 0.0 | 0.00 | 0.00 | 0.00 | 77 | 1015.1 |
| 20260905140017 | 82 | 254 | 0.0 | 0.0 | 0.00 | 0.00 | 0.00 | 78 | 1015.2 |
| 20260905135513 | 81 | 266 | 0.0 | 0.0 | 0.00 | 0.00 | 0.00 | 78 | 1015.2 |
| 20260905135008 | 81 | 248 | 0.0 | 0.0 | 0.00 | 0.00 | 0.00 | 79 | 1015.1 |
| 20260905134508 | 80 | 237 | 0.0 | 0.0 | 0.00 | 0.00 | 0.00 | 80 | 1015.2 |
| 20260905134007 | 80 | 245 | 0.0 | 0.0 | 0.00 | 0.00 | 0.00 | 81 | 1015.3 |
| 20260905133502 | 80 | 248 | 0.0 | 0.0 | 0.00 | 0.00 | 0.00 | 81 | 1015.4 |
| 20260905133001 | 79 | 247 | 0.0 | 0.0 | 0.00 | 0.00 | 0.00 | 81 | 1015.3 |
| 20260905132456 | 79 | 277 | 0.0 | 0.0 | 0.00 | 0.00 | 0.00 | 82 | 1015.3 |
| 20260905131951 | 79 | 247 | 0.0 | 0.0 | 0.00 | 0.00 | 0.00 | 82 | 1015.3 |
| 20260905131448 | 78 | 246 | 0.0 | 0.0 | 0.00 | 0.00 | 0.00 | 83 | 1015.4 |
| 20260905130948 | 78 | 244 | 0.0 | 0.0 | 0.00 | 0.00 | 0.00 | 84 | 1015.3 |
| 20260905130441 | 77 | 275 | 0.0 | 0.0 | 0.00 | 0.00 | 0.00 | 84 | 1015.3 |
| 20260905125941 | 77 | 257 | 0.0 | 0.0 | 0.00 | 0.00 | 0.00 | 84 | 1015.3 |
| 20260905125436 | 77 | 247 | 0.0 | 0.0 | 0.00 | 0.00 | 0.00 | 84 | 1015.3 |
| 20260905124931 | 76 | 246 | 0.0 | 0.0 | 0.00 | 0.00 | 0.00 | 84 | 1015.1 |
| 20260905124428 | 76 | 245 | 0.0 | 0.0 | 0.00 | 0.00 | 0.00 | 85 | 1015.2 |
| 20260905123928 | 76 | 245 | 0.0 | 0.0 | 0.00 | 0.00 | 0.00 | 85 | 1015.4 |
| 20260905123424 | 76 | 246 | 0.0 | 0.0 | 0.00 | 0.00 | 0.00 | 85 | 1015.2 |
| 20260905122915 | 76 | 250 | 0.0 | 0.0 | 0.00 | 0.00 | 0.00 | 85 | 1015.2 |
| 20260905122414 | 75 | 250 | 0.0 | 0.0 | 0.00 | 0.00 | 0.00 | 85 | 1015.0 |
| 20260905121909 | 75 | 250 | 0.0 | 0.0 | 0.00 | 0.00 | 0.00 | 85 | 1015.1 |
| 20260905121405 | 75 | 250 | 0.0 | 0.0 | 0.00 | 0.00 | 0.00 | 85 | 1015.1 |
| 20260905120903 | 75 | 250 | 0.0 | 0.0 | 0.00 | 0.00 | 0.00 | 84 | 1015.0 |
| 20260905120358 | 75 | 246 | 0.0 | 0.0 | 0.00 | 0.00 | 0.00 | 84 | 1014.8 |
| 20260905115853 | 75 | 246 | 0.0 | 0.0 | 0.00 | 0.00 | 0.00 | 84 | 1015.0 |
| 20260905115352 | 75 | 252 | 0.0 | 0.0 | 0.00 | 0.00 | 0.00 | 84 | 1015.0 |
| 20260905114847 | 75 | 252 | 0.0 | 0.0 | 0.00 | 0.00 | 0.00 | 84 | 1014.9 |
| 20260905114346 | 75 | 252 | 0.0 | 0.0 | 0.00 | 0.00 | 0.00 | 84 | 1015.0 |
| 20260905113845 | 75 | 247 | 0.0 | 0.0 | 0.00 | 0.00 | 0.00 | 84 | 1014.9 |
| 20260905113341 | 75 | 249 | 0.0 | 0.0 | 0.00 | 0.00 | 0.00 | 83 | 1015.0 |
| 20260905112836 | 75 | 249 | 0.0 | 0.0 | 0.00 | 0.00 | 0.00 | 83 | 1014.8 |
| 20260905112332 | 75 | 249 | 0.0 | 0.0 | 0.00 | 0.00 | 0.00 | 83 | 1014.8 |
| 20260905111827 | 75 | 253 | 0.0 | 0.0 | 0.00 | 0.00 | 0.00 | 83 | 1014.8 |
| 20260905111327 | 75 | 255 | 0.0 | 0.0 | 0.00 | 0.00 | 0.00 | 83 | 1014.8 |
| 20260905110826 | 75 | 254 | 0.0 | 0.0 | 0.00 | 0.00 | 0.00 | 83 | 1014.9 |
| 20260905110319 | 76 | 252 | 0.0 | 0.0 | 0.00 | 0.00 | 0.00 | 83 | 1014.6 |
| 20260905105815 | 76 | 252 | 0.0 | 0.0 | 0.00 | 0.00 | 0.00 | 83 | 1014.8 |
| 20260905105314 | 76 | 252 | 0.0 | 0.0 | 0.00 | 0.00 | 0.00 | 83 | 1014.5 |
| 20260905104808 | 76 | 252 | 0.0 | 0.0 | 0.00 | 0.00 | 0.00 | 83 | 1014.4 |
| 20260905104306 | 76 | 252 | 0.0 | 0.0 | 0.00 | 0.00 | 0.00 | 83 | 1014.4 |
| 20260905103805 | 76 | 251 | 0.0 | 0.0 | 0.00 | 0.00 | 0.00 | 83 | 1014.5 |
| 20260905103300 | 76 | 251 | 0.0 | 0.0 | 0.00 | 0.00 | 0.00 | 83 | 1014.8 |
| 20260905102756 | 76 | 253 | 0.0 | 0.0 | 0.00 | 0.00 | 0.00 | 82 | 1014.8 |
| 20260905102253 | 76 | 255 | 0.0 | 0.0 | 0.00 | 0.00 | 0.00 | 82 | 1014.8 |
| 20260905101752 | 76 | 255 | 0.0 | 0.0 | 0.00 | 0.00 | 0.00 | 82 | 1014.5 |
| 20260905101251 | 76 | 244 | 0.0 | 0.0 | 0.00 | 0.00 | 0.00 | 82 | 1014.4 |
| 20260905100745 | 76 | 243 | 0.0 | 0.0 | 0.00 | 0.00 | 0.00 | 82 | 1014.6 |
| 20260905100242 | 76 | 245 | 0.0 | 0.0 | 0.00 | 0.00 | 0.00 | 82 | 1014.5 |
| 20260905095741 | 76 | 251 | 0.0 | 0.0 | 0.00 | 0.00 | 0.00 | 82 | 1014.5 |
| 20260905095240 | 76 | 254 | 0.0 | 0.0 | 0.00 | 0.00 | 0.00 | 82 | 1014.3 |
| 20260905094735 | 76 | 251 | 0.0 | 0.0 | 0.00 | 0.00 | 0.00 | 82 | 1014.5 |
| 20260905094230 | 76 | 246 | 0.0 | 0.0 | 0.00 | 0.00 | 0.00 | 81 | 1014.5 |
| 20260905093725 | 76 | 245 | 0.0 | 0.0 | 0.00 | 0.00 | 0.00 | 81 | 1014.3 |
| 20260905093221 | 76 | 242 | 0.0 | 0.0 | 0.00 | 0.00 | 0.00 | 81 | 1014.6 |
| 20260905092716 | 76 | 243 | 0.0 | 0.0 | 0.00 | 0.00 | 0.00 | 81 | 1014.2 |
| 20260905092211 | 76 | 251 | 0.0 | 0.0 | 0.00 | 0.00 | 0.00 | 81 | 1014.4 |
| 20260905091710 | 76 | 251 | 0.0 | 0.0 | 0.00 | 0.00 | 0.00 | 81 | 1014.2 |
| 20260905091206 | 76 | 251 | 0.0 | 0.0 | 0.00 | 0.00 | 0.00 | 81 | 1014.3 |
| 20260905090704 | 76 | 251 | 0.0 | 0.0 | 0.00 | 0.00 | 0.00 | 81 | 1014.1 |
| 20260905090201 | 77 | 251 | 0.0 | 0.0 | 0.00 | 0.00 | 0.00 | 81 | 1014.2 |
| 20260905085659 | 76 | 251 | 0.0 | 0.0 | 0.00 | 0.00 | 0.00 | 81 | 1014.1 |
| 20260905085155 | 76 | 251 | 0.0 | 0.0 | 0.00 | 0.00 | 0.00 | 81 | 1014.2 |
| 20260905084654 | 77 | 252 | 0.0 | 0.0 | 0.00 | 0.00 | 0.00 | 80 | 1014.1 |
| 20260905084149 | 77 | 255 | 0.0 | 0.0 | 0.00 | 0.00 | 0.00 | 80 | 1014.2 |
| 20260905083643 | 77 | 254 | 0.0 | 0.0 | 0.00 | 0.00 | 0.00 | 80 | 1014.3 |
| 20260905083140 | 77 | 251 | 0.0 | 0.0 | 0.00 | 0.00 | 0.00 | 80 | 1014.4 |
| 20260905082635 | 77 | 251 | 0.0 | 0.0 | 0.00 | 0.00 | 0.00 | 80 | 1014.4 |
| 20260905082126 | 77 | 251 | 0.0 | 0.0 | 0.00 | 0.00 | 0.00 | 80 | 1014.4 |
| 20260905081626 | 77 | 251 | 0.0 | 0.0 | 0.00 | 0.00 | 0.00 | 80 | 1014.4 |
| 20260905081125 | 77 | 256 | 0.0 | 0.0 | 0.00 | 0.00 | 0.00 | 79 | 1014.6 |
| 20260905080620 | 77 | 257 | 0.0 | 0.0 | 0.00 | 0.00 | 0.00 | 79 | 1014.4 |
| 20260905080115 | 77 | 259 | 0.0 | 0.0 | 0.00 | 0.00 | 0.00 | 79 | 1014.5 |
| 20260905075614 | 77 | 260 | 0.0 | 0.0 | 0.00 | 0.00 | 0.00 | 79 | 1014.6 |
| 20260905075113 | 77 | 251 | 0.0 | 0.0 | 0.00 | 0.00 | 0.00 | 80 | 1014.5 |
| 20260905074613 | 77 | 254 | 0.0 | 0.0 | 0.00 | 0.00 | 0.00 | 80 | 1014.5 |
| 20260905074109 | 77 | 257 | 0.0 | 0.0 | 0.00 | 0.00 | 0.00 | 80 | 1014.6 |
| 20260905073604 | 77 | 260 | 0.0 | 0.0 | 0.00 | 0.00 | 0.00 | 80 | 1014.4 |
| 20260905073059 | 77 | 261 | 0.0 | 0.0 | 0.00 | 0.00 | 0.00 | 80 | 1014.4 |
| 20260905072558 | 77 | 257 | 0.0 | 0.0 | 0.00 | 0.00 | 0.00 | 80 | 1014.4 |
| 20260905072054 | 77 | 258 | 0.0 | 0.0 | 0.00 | 0.00 | 0.00 | 80 | 1014.2 |
| 20260905071552 | 77 | 257 | 0.0 | 0.0 | 0.00 | 0.00 | 0.00 | 81 | 1014.5 |
| 20260905071052 | 77 | 257 | 0.0 | 0.0 | 0.00 | 0.00 | 0.00 | 81 | 1014.6 |
| 20260905070547 | 77 | 256 | 0.0 | 0.0 | 0.00 | 0.00 | 0.00 | 81 | 1014.4 |
| 20260905070043 | 77 | 256 | 0.0 | 0.0 | 0.00 | 0.00 | 0.00 | 81 | 1014.4 |
| 20260905065540 | 77 | 254 | 0.0 | 0.0 | 0.00 | 0.00 | 0.00 | 81 | 1014.4 |
| 20260905065036 | 77 | 250 | 0.0 | 0.0 | 0.00 | 0.00 | 0.00 | 81 | 1014.4 |
| 20260905064536 | 77 | 248 | 0.0 | 0.0 | 0.00 | 0.00 | 0.00 | 81 | 1014.4 |
| 20260905064031 | 77 | 253 | 0.0 | 0.0 | 0.00 | 0.00 | 0.00 | 81 | 1014.6 |
| 20260905063530 | 78 | 257 | 0.0 | 0.0 | 0.00 | 0.00 | 0.00 | 81 | 1014.5 |
| 20260905063027 | 78 | 257 | 0.0 | 0.0 | 0.00 | 0.00 | 0.00 | 81 | 1014.8 |
| 20260905062527 | 78 | 250 | 0.0 | 0.0 | 0.00 | 0.00 | 0.00 | 81 | 1014.8 |
| 20260905062027 | 78 | 259 | 0.0 | 0.0 | 0.00 | 0.00 | 0.00 | 81 | 1014.8 |
| 20260905061522 | 78 | 257 | 0.0 | 0.0 | 0.00 | 0.00 | 0.00 | 81 | 1014.8 |
| 20260905061021 | 78 | 257 | 0.0 | 0.0 | 0.00 | 0.00 | 0.00 | 81 | 1014.6 |
| 20260905060517 | 77 | 257 | 0.0 | 0.0 | 0.00 | 0.00 | 0.00 | 81 | 1014.6 |
| 20260905060013 | 77 | 255 | 0.0 | 0.0 | 0.00 | 0.00 | 0.00 | 81 | 1014.9 |
| 20260905055511 | 77 | 254 | 0.0 | 0.0 | 0.00 | 0.00 | 0.00 | 81 | 1015.0 |
| 20260905055006 | 77 | 239 | 0.0 | 0.0 | 0.00 | 0.00 | 0.00 | 80 | 1014.9 |
| 20260905054502 | 78 | 220 | 0.9 | 0.9 | 0.00 | 0.00 | 0.00 | 80 | 1015.0 |
| 20260905053957 | 78 | 245 | 0.0 | 0.0 | 0.00 | 0.00 | 0.00 | 80 | 1014.8 |
| 20260905053451 | 78 | 250 | 0.0 | 0.0 | 0.00 | 0.00 | 0.00 | 79 | 1014.8 |
| 20260905052947 | 78 | 250 | 0.0 | 0.0 | 0.00 | 0.00 | 0.00 | 79 | 1014.8 |
| 20260905052447 | 78 | 246 | 0.0 | 0.0 | 0.00 | 0.00 | 0.00 | 79 | 1015.0 |
| 20260905051946 | 78 | 251 | 0.0 | 0.0 | 0.00 | 0.00 | 0.00 | 79 | 1014.8 |
| 20260905051441 | 79 | 251 | 0.0 | 0.0 | 0.00 | 0.00 | 0.00 | 79 | 1014.6 |
| 20260905050939 | 79 | 254 | 0.0 | 0.0 | 0.00 | 0.00 | 0.00 | 78 | 1014.8 |
| 20260905050434 | 79 | 254 | 0.0 | 0.0 | 0.00 | 0.00 | 0.00 | 78 | 1014.8 |
| 20260905045930 | 79 | 247 | 0.0 | 0.0 | 0.00 | 0.00 | 0.00 | 78 | 1014.9 |
| 20260905045420 | 79 | 243 | 0.0 | 0.0 | 0.00 | 0.00 | 0.00 | 78 | 1014.8 |
| 20260905044915 | 79 | 247 | 0.0 | 0.0 | 0.00 | 0.00 | 0.00 | 77 | 1014.8 |
| 20260905044410 | 80 | 236 | 0.0 | 0.0 | 0.00 | 0.00 | 0.00 | 77 | 1015.0 |
| 20260905043909 | 80 | 243 | 0.0 | 0.0 | 0.00 | 0.00 | 0.00 | 77 | 1014.9 |
| 20260905043403 | 80 | 243 | 0.0 | 0.0 | 0.00 | 0.00 | 0.00 | 76 | 1015.0 |
| 20260905042903 | 80 | 253 | 0.0 | 0.0 | 0.00 | 0.00 | 0.00 | 76 | 1015.1 |
| 20260905042358 | 80 | 259 | 0.0 | 0.0 | 0.00 | 0.00 | 0.00 | 75 | 1015.1 |
| 20260905041852 | 80 | 256 | 0.0 | 0.0 | 0.00 | 0.00 | 0.00 | 75 | 1015.0 |
| 20260905041349 | 81 | 256 | 0.0 | 0.0 | 0.00 | 0.00 | 0.00 | 75 | 1015.2 |
| 20260905040844 | 81 | 256 | 0.0 | 0.0 | 0.00 | 0.00 | 0.00 | 75 | 1015.1 |
| 20260905040342 | 81 | 255 | 0.0 | 0.0 | 0.00 | 0.00 | 0.00 | 74 | 1015.0 |
| 20260905035842 | 81 | 255 | 0.0 | 0.0 | 0.00 | 0.00 | 0.00 | 74 | 1015.0 |
| 20260905035338 | 81 | 255 | 0.0 | 0.0 | 0.00 | 0.00 | 0.00 | 74 | 1014.8 |
| 20260905034834 | 81 | 266 | 0.0 | 0.0 | 0.00 | 0.00 | 0.00 | 74 | 1015.0 |
| 20260905034330 | 81 | 272 | 0.0 | 0.0 | 0.00 | 0.00 | 0.00 | 73 | 1014.9 |
| 20260905033828 | 82 | 251 | 0.0 | 0.0 | 0.00 | 0.00 | 0.00 | 72 | 1015.1 |
| 20260905033323 | 82 | 251 | 0.0 | 0.0 | 0.00 | 0.00 | 0.00 | 72 | 1014.9 |
| 20260905032823 | 82 | 255 | 0.0 | 0.0 | 0.00 | 0.00 | 0.00 | 71 | 1015.0 |
| 20260905032318 | 82 | 254 | 0.0 | 0.0 | 0.00 | 0.00 | 0.00 | 71 | 1015.1 |
| 20260905031813 | 82 | 250 | 0.0 | 0.0 | 0.00 | 0.00 | 0.00 | 70 | 1014.8 |
| 20260905031309 | 82 | 250 | 0.0 | 0.0 | 0.00 | 0.00 | 0.00 | 70 | 1015.1 |
| 20260905030804 | 82 | 255 | 0.0 | 0.0 | 0.00 | 0.00 | 0.00 | 70 | 1014.9 |
| 20260905030300 | 82 | 255 | 0.0 | 0.0 | 0.00 | 0.00 | 0.00 | 69 | 1014.9 |
| 20260905025759 | 83 | 249 | 0.0 | 0.0 | 0.00 | 0.00 | 0.00 | 69 | 1014.9 |
| 20260905025255 | 83 | 248 | 0.0 | 0.0 | 0.00 | 0.00 | 0.00 | 69 | 1014.9 |
| 20260905024750 | 83 | 247 | 0.0 | 0.0 | 0.00 | 0.00 | 0.00 | 68 | 1014.6 |
| 20260905024246 | 83 | 242 | 0.0 | 0.0 | 0.00 | 0.00 | 0.00 | 68 | 1014.9 |
| 20260905023741 | 84 | 240 | 0.0 | 0.0 | 0.00 | 0.00 | 0.00 | 67 | 1014.6 |
| 20260905023236 | 84 | 255 | 0.0 | 0.0 | 0.00 | 0.00 | 0.00 | 67 | 1014.8 |
| 20260905022735 | 84 | 250 | 0.0 | 0.0 | 0.00 | 0.00 | 0.00 | 67 | 1014.5 |
| 20260905022231 | 84 | 250 | 0.0 | 0.0 | 0.00 | 0.00 | 0.00 | 66 | 1014.5 |
| 20260905021730 | 84 | 249 | 0.0 | 0.0 | 0.00 | 0.00 | 0.00 | 65 | 1014.5 |
| 20260905021225 | 85 | 248 | 0.0 | 0.0 | 0.00 | 0.00 | 0.00 | 64 | 1014.6 |
| 20260905020720 | 85 | 237 | 0.0 | 0.9 | 0.00 | 0.00 | 0.00 | 64 | 1014.6 |
| 20260905020216 | 85 | 259 | 0.0 | 0.0 | 0.00 | 0.00 | 0.00 | 63 | 1014.6 |
| 20260905015714 | 86 | 259 | 0.0 | 0.0 | 0.00 | 0.00 | 0.00 | 63 | 1014.4 |
| 20260905015214 | 86 | 247 | 0.0 | 0.0 | 0.00 | 0.00 | 0.00 | 62 | 1014.5 |
| 20260905014713 | 86 | 246 | 0.0 | 0.0 | 0.00 | 0.00 | 0.00 | 62 | 1014.4 |
| 20260905014209 | 86 | 247 | 0.0 | 0.0 | 0.00 | 0.00 | 0.00 | 62 | 1014.3 |
| 20260905013705 | 87 | 247 | 0.0 | 0.0 | 0.00 | 0.00 | 0.00 | 61 | 1014.4 |
| 20260905013200 | 87 | 245 | 0.0 | 0.0 | 0.00 | 0.00 | 0.00 | 60 | 1014.4 |
| 20260905012655 | 88 | 248 | 0.0 | 0.0 | 0.00 | 0.00 | 0.00 | 59 | 1014.3 |
| 20260905012151 | 88 | 247 | 0.0 | 0.0 | 0.00 | 0.00 | 0.00 | 58 | 1014.2 |
| 20260905011648 | 89 | 244 | 0.0 | 0.0 | 0.00 | 0.00 | 0.00 | 58 | 1014.2 |
| 20260905011138 | 89 | 244 | 0.0 | 0.0 | 0.00 | 0.00 | 0.00 | 59 | 1014.1 |
| 20260905010638 | 90 | 245 | 0.0 | 0.0 | 0.00 | 0.00 | 0.00 | 58 | 1014.1 |
| 20260905010129 | 90 | 249 | 0.0 | 0.0 | 0.00 | 0.00 | 0.00 | 57 | 1014.0 |
| 20260905005624 | 91 | 252 | 0.0 | 0.0 | 0.00 | 0.00 | 0.00 | 55 | 1013.9 |
| 20260905005119 | 92 | 252 | 0.0 | 0.0 | 0.00 | 0.00 | 0.00 | 53 | 1014.1 |
| 20260905004613 | 92 | 252 | 0.0 | 0.0 | 0.00 | 0.00 | 0.00 | 51 | 1014.0 |
| 20260905004108 | 93 | 260 | 0.0 | 0.0 | 0.00 | 0.00 | 0.00 | 50 | 1014.1 |
| 20260905003604 | 93 | 258 | 0.0 | 0.0 | 0.00 | 0.00 | 0.00 | 49 | 1014.1 |
| 20260905003100 | 94 | 251 | 0.0 | 0.0 | 0.00 | 0.00 | 0.00 | 48 | 1013.9 |
| 20260905002555 | 95 | 257 | 0.0 | 0.0 | 0.00 | 0.00 | 0.00 | 47 | 1014.0 |
| 20260905002049 | 96 | 259 | 0.0 | 0.0 | 0.00 | 0.00 | 0.00 | 45 | 1013.8 |
| 20260905001544 | 98 | 254 | 0.0 | 0.0 | 0.00 | 0.00 | 0.00 | 44 | 1013.9 |
| 20260905001038 | 99 | 254 | 0.0 | 0.0 | 0.00 | 0.00 | 0.00 | 43 | 1014.1 |
| 20260905000534 | 100 | 255 | 0.0 | 0.0 | 0.00 | 0.00 | 0.00 | 42 | 1013.9 |
| 20260905000030 | 101 | 254 | 0.0 | 0.0 | 0.00 | 0.00 | 0.00 | 40 | 1013.8 |
| 20260904235525 | 102 | 255 | 0.0 | 0.0 | 0.00 | 0.00 | 0.00 | 39 | 1014.0 |
| 20260904235024 | 104 | 254 | 0.0 | 0.0 | 0.00 | 0.00 | 0.00 | 37 | 1013.9 |
| 20260904234518 | 106 | 252 | 0.0 | 0.0 | 0.00 | 0.00 | 0.00 | 35 | 1013.9 |
| 20260904234014 | 109 | 249 | 0.0 | 0.0 | 0.00 | 0.00 | 0.00 | 33 | 1013.9 |
| 20260904233509 | 111 | 243 | 0.0 | 0.9 | 0.00 | 0.00 | 0.00 | 31 | 1013.7 |
| 20260904233006 | 112 | 250 | 0.0 | 0.0 | 0.00 | 0.00 | 0.00 | 31 | 1013.6 |
| 20260904232501 | 112 | 252 | 0.0 | 0.0 | 0.00 | 0.00 | 0.00 | 31 | 1013.4 |
| 20260904231958 | 112 | 243 | 0.0 | 0.9 | 0.00 | 0.00 | 0.00 | 31 | 1013.6 |
| 20260904231453 | 111 | 240 | 0.0 | 0.9 | 0.00 | 0.00 | 0.00 | 31 | 1013.4 |
| 20260904230948 | 112 | 207 | 1.7 | 1.7 | 0.00 | 0.00 | 0.00 | 30 | 1013.5 |
| 20260904230447 | 112 | 213 | 0.9 | 1.7 | 0.00 | 0.00 | 0.00 | 30 | 1013.5 |
| 20260904225942 | 113 | 245 | 0.9 | 0.9 | 0.00 | 0.00 | 0.00 | 29 | 1013.5 |
| 20260904225440 | 112 | 244 | 0.0 | 0.9 | 0.00 | 0.00 | 0.00 | 29 | 1013.6 |
| 20260904224934 | 112 | 251 | 0.9 | 0.9 | 0.00 | 0.00 | 0.00 | 30 | 1013.4 |